Historyczne dane pomiarowe

Dodano dane terminowe – wersja testowa.

Dane z okresu 1951-2019

Wersja bazy: 1.34 [2019-03-16, lista zmian], aktualizacja planowana na 2019-04-15

Dane meteo z obszaru Polski uzyskane na podstawie danych udostępnionych przez Instytut Meteorologii i Gospodarki Wodnej – Państwowy Instytut Badawczy.

 

Wybierz Datę:    

       

TemperaturaWilgotnośćWiatrCiśnienieOpadyŚniegCzas trwania zjawisk
 Stacja t tx tn tng RH VA  wxwx mslp ppp RRR   cm mm wxwxwxwxwxwxwx
1997-03-18 -3.5 1.3 -7.1--- 2.0 2.0---- 0.1-- 1---------
1997-03-19 -3.9 1.0 -9.1--- 5.3 0.3---- 0.0-- 1---------
1997-03-20 -3.6 -0.6 -7.2--- 7.0 4.0---- 1.1------------
1997-03-21 -2.9 -0.4 -3.9--- 6.0 0.0---- 0.0-- 2---------
1997-03-22 -3.4 1.9 -8.3--- 2.0 0.7---- 0.0------------
1997-03-23 -2.1 1.4 -6.5--- 5.7 0.7---- 0.0------------
1997-03-24 -2.0 2.4 -4.6--- 2.7 0.7---- 0.0------------
1997-03-25 -3.1 1.8 -7.7--- 4.3 0.7---- 0.0------------
1997-03-26 -4.1 1.8-10.8--- 3.7 1.0---- 3.9------------
1997-03-27 3.2 7.5 -1.6--- 8.0 5.3---- 0.3-- 3---------
1997-03-28 2.7 6.0 0.6--- 8.0 2.0---- 10.3------------
1997-03-29 2.2 5.6 0.5--- 4.7 4.3---- 0.6-- 2---------
1997-03-30 2.0 7.2 -1.4--- 2.3 3.3---- 1.8------------
1997-03-31 3.1 6.7 -2.1--- 8.0 4.7---- 0.0------------
1997-04-01 7.8 11.9 5.4--- 3.7 3.0---- 0.0------------
1997-04-02 7.2 11.6 4.6--- 1.0 3.7---- 0.0------------
1997-04-03 7.1 14.0 -0.9--- 5.0 4.7---- 4.4------------
1997-04-04 3.5 9.9 1.1--- 4.3 4.7---- 1.9------------
1997-04-05 2.1 6.8 -1.2--- 4.3 2.3---- 1.9------------
1997-04-06 0.0 4.1 -1.5--- 7.7 2.3---- 0.7-- 2---------
1997-04-07 -1.2 2.7 -4.2--- 7.0 3.3---- 0.0------------
1997-04-08 -1.7 3.7 -7.2--- 2.7 2.3---- 0.0------------
1997-04-09 1.3 6.7 -3.1--- 5.3 1.7---- 0.5------------
1997-04-10 4.9 6.6 3.3--- 8.0 4.0---- 5.5------------
1997-04-11 2.6 5.5 0.4--- 8.0 6.3---- 10.4------------
1997-04-12 -0.4 1.0 -1.0--- 8.0 4.3---- 1.9-- 2---------
1997-04-13 0.6 5.1 -3.6--- 6.0 4.0---- 0.4-- 1---------
1997-04-14 3.5 5.4 1.9--- 8.0 5.0---- 6.4------------
1997-04-15 0.7 6.1 -3.4--- 5.3 0.7---- 0.0------------
1997-04-16 -0.7 1.0 -3.1--- 8.0 1.3---- 8.2------------
201.0 ms

 

Źródłem pochodzenia danych jest Instytut Meteorologii i Gospodarki Wodnej – Państwowy Instytut Badawczy. Dane Instytutu Meteorologii i Gospodarki Wodnej – Państwowego Instytutu Badawczego zostały przetworzone.

Dane źródłowe można odnaleźć na stronie https://dane.imgw.pl